sensor_id;sensor_type;location;lat;lon;timestamp;temperature;humidity
45383;DHT22;42455;51.660;5.824;2022-12-18T00:00:31;-2.0;93.0
45383;DHT22;42455;51.660;5.824;2022-12-18T00:05:37;-2.1;93.0
45383;DHT22;42455;51.660;5.824;2022-12-18T00:10:44;-2.1;93.0
45383;DHT22;42455;51.660;5.824;2022-12-18T00:15:50;-2.2;93.0
45383;DHT22;42455;51.660;5.824;2022-12-18T00:20:58;-2.2;93.0
45383;DHT22;42455;51.660;5.824;2022-12-18T00:26:04;-2.3;93.0
45383;DHT22;42455;51.660;5.824;2022-12-18T00:31:11;-2.3;93.0
45383;DHT22;42455;51.660;5.824;2022-12-18T00:36:17;-2.4;92.5
45383;DHT22;42455;51.660;5.824;2022-12-18T00:41:21;-2.5;93.0
45383;DHT22;42455;51.660;5.824;2022-12-18T00:46:26;-2.6;93.0
45383;DHT22;42455;51.660;5.824;2022-12-18T00:51:32;-2.6;93.0
45383;DHT22;42455;51.660;5.824;2022-12-18T00:56:39;-2.7;93.0
45383;DHT22;42455;51.660;5.824;2022-12-18T01:01:45;-2.7;93.0
45383;DHT22;42455;51.660;5.824;2022-12-18T01:06:51;-2.7;93.0
45383;DHT22;42455;51.660;5.824;2022-12-18T01:11:57;-2.7;93.0
45383;DHT22;42455;51.660;5.824;2022-12-18T01:17:02;-2.8;93.0
45383;DHT22;42455;51.660;5.824;2022-12-18T01:22:08;-2.8;92.5
45383;DHT22;42455;51.660;5.824;2022-12-18T01:27:15;-2.9;92.5
45383;DHT22;42455;51.660;5.824;2022-12-18T01:32:21;-2.9;93.0
45383;DHT22;42455;51.660;5.824;2022-12-18T01:37:27;-2.9;93.0
45383;DHT22;42455;51.660;5.824;2022-12-18T01:42:33;-3.0;93.0
45383;DHT22;42455;51.660;5.824;2022-12-18T01:47:42;-3.0;93.0
45383;DHT22;42455;51.660;5.824;2022-12-18T01:52:48;-3.0;93.0
45383;DHT22;42455;51.660;5.824;2022-12-18T01:57:56;-3.0;93.0
45383;DHT22;42455;51.660;5.824;2022-12-18T02:02:58;-3.1;93.0
45383;DHT22;42455;51.660;5.824;2022-12-18T02:08:13;-3.1;93.0
45383;DHT22;42455;51.660;5.824;2022-12-18T02:13:26;-3.1;93.0
45383;DHT22;42455;51.660;5.824;2022-12-18T02:18:20;-3.1;93.0
45383;DHT22;42455;51.660;5.824;2022-12-18T02:24:10;-3.2;93.0
45383;DHT22;42455;51.660;5.824;2022-12-18T02:28:32;-3.2;92.5
45383;DHT22;42455;51.660;5.824;2022-12-18T02:33:36;-3.2;92.5
45383;DHT22;42455;51.660;5.824;2022-12-18T02:38:42;-3.3;92.5
45383;DHT22;42455;51.660;5.824;2022-12-18T02:43:48;-3.3;92.5
45383;DHT22;42455;51.660;5.824;2022-12-18T02:48:59;-3.4;92.5
45383;DHT22;42455;51.660;5.824;2022-12-18T02:54:37;-3.4;92.5
45383;DHT22;42455;51.660;5.824;2022-12-18T02:59:14;-3.4;92.5
45383;DHT22;42455;51.660;5.824;2022-12-18T03:04:16;-3.5;92.5
45383;DHT22;42455;51.660;5.824;2022-12-18T03:09:29;-3.5;92.5
45383;DHT22;42455;51.660;5.824;2022-12-18T03:14:30;-3.5;92.5
45383;DHT22;42455;51.660;5.824;2022-12-18T03:19:32;-3.6;92.5
45383;DHT22;42455;51.660;5.824;2022-12-18T03:24:37;-3.6;92.5
45383;DHT22;42455;51.660;5.824;2022-12-18T03:29:55;-3.7;92.5
45383;DHT22;42455;51.660;5.824;2022-12-18T03:35:00;-3.7;92.5
45383;DHT22;42455;51.660;5.824;2022-12-18T03:39:56;-3.7;92.5
45383;DHT22;42455;51.660;5.824;2022-12-18T03:45:18;-3.7;92.5
45383;DHT22;42455;51.660;5.824;2022-12-18T03:50:15;-3.7;92.5
45383;DHT22;42455;51.660;5.824;2022-12-18T03:55:15;-3.7;92.5
45383;DHT22;42455;51.660;5.824;2022-12-18T04:00:21;-3.7;92.5
45383;DHT22;42455;51.660;5.824;2022-12-18T04:05:28;-3.7;92.5
45383;DHT22;42455;51.660;5.824;2022-12-18T04:10:34;-3.7;93.0
45383;DHT22;42455;51.660;5.824;2022-12-18T04:15:40;-3.7;93.0
45383;DHT22;42455;51.660;5.824;2022-12-18T04:20:46;-3.7;93.0
45383;DHT22;42455;51.660;5.824;2022-12-18T04:25:52;-3.7;93.0
45383;DHT22;42455;51.660;5.824;2022-12-18T04:30:58;-3.7;93.0
45383;DHT22;42455;51.660;5.824;2022-12-18T04:36:04;-3.6;93.0
45383;DHT22;42455;51.660;5.824;2022-12-18T04:41:10;-3.6;93.0
45383;DHT22;42455;51.660;5.824;2022-12-18T04:46:17;-3.6;93.0
45383;DHT22;42455;51.660;5.824;2022-12-18T04:56:31;-3.6;93.0
45383;DHT22;42455;51.660;5.824;2022-12-18T05:01:35;-3.6;93.0
45383;DHT22;42455;51.660;5.824;2022-12-18T05:06:41;-3.6;93.0
45383;DHT22;42455;51.660;5.824;2022-12-18T05:11:48;-3.6;93.0
45383;DHT22;42455;51.660;5.824;2022-12-18T05:22:00;-3.5;93.0
45383;DHT22;42455;51.660;5.824;2022-12-18T05:27:06;-3.5;93.0
45383;DHT22;42455;51.660;5.824;2022-12-18T05:32:12;-3.5;93.0
45383;DHT22;42455;51.660;5.824;2022-12-18T05:37:19;-3.5;92.5
45383;DHT22;42455;51.660;5.824;2022-12-18T05:42:25;-3.6;92.5
45383;DHT22;42455;51.660;5.824;2022-12-18T05:47:31;-3.6;92.5
45383;DHT22;42455;51.660;5.824;2022-12-18T05:52:37;-3.6;92.5
45383;DHT22;42455;51.660;5.824;2022-12-18T05:57:43;-3.6;92.5
45383;DHT22;42455;51.660;5.824;2022-12-18T06:02:50;-3.7;92.5
45383;DHT22;42455;51.660;5.824;2022-12-18T06:07:56;-3.7;92.5
45383;DHT22;42455;51.660;5.824;2022-12-18T06:13:03;-3.7;92.5
45383;DHT22;42455;51.660;5.824;2022-12-18T06:18:08;-3.7;93.0
45383;DHT22;42455;51.660;5.824;2022-12-18T06:23:14;-3.7;93.0
45383;DHT22;42455;51.660;5.824;2022-12-18T06:28:21;-3.6;93.0
45383;DHT22;42455;51.660;5.824;2022-12-18T06:33:27;-3.5;93.5
45383;DHT22;42455;51.660;5.824;2022-12-18T06:38:34;-3.4;93.5
45383;DHT22;42455;51.660;5.824;2022-12-18T06:43:40;-3.4;93.5
45383;DHT22;42455;51.660;5.824;2022-12-18T06:48:46;-3.3;93.5
45383;DHT22;42455;51.660;5.824;2022-12-18T06:53:51;-3.3;93.5
45383;DHT22;42455;51.660;5.824;2022-12-18T06:58:57;-3.2;93.5
45383;DHT22;42455;51.660;5.824;2022-12-18T07:04:03;-3.2;93.5
45383;DHT22;42455;51.660;5.824;2022-12-18T07:09:09;-3.2;93.0
45383;DHT22;42455;51.660;5.824;2022-12-18T07:14:16;-3.1;93.5
45383;DHT22;42455;51.660;5.824;2022-12-18T07:19:22;-3.0;93.5
45383;DHT22;42455;51.660;5.824;2022-12-18T07:24:28;-2.9;94.0
45383;DHT22;42455;51.660;5.824;2022-12-18T07:29:34;-2.8;94.0
45383;DHT22;42455;51.660;5.824;2022-12-18T07:34:41;-2.7;94.0
45383;DHT22;42455;51.660;5.824;2022-12-18T07:39:47;-2.6;94.0
45383;DHT22;42455;51.660;5.824;2022-12-18T07:44:53;-2.5;93.5
45383;DHT22;42455;51.660;5.824;2022-12-18T07:49:59;-2.4;93.5
45383;DHT22;42455;51.660;5.824;2022-12-18T07:55:05;-2.3;93.5
45383;DHT22;42455;51.660;5.824;2022-12-18T08:00:12;-2.3;93.5
45383;DHT22;42455;51.660;5.824;2022-12-18T08:05:18;-2.2;93.5
45383;DHT22;42455;51.660;5.824;2022-12-18T08:10:24;-2.1;93.5
45383;DHT22;42455;51.660;5.824;2022-12-18T08:15:30;-2.0;93.5
45383;DHT22;42455;51.660;5.824;2022-12-18T08:20:36;-2.0;94.0
45383;DHT22;42455;51.660;5.824;2022-12-18T08:25:42;-1.9;94.0
45383;DHT22;42455;51.660;5.824;2022-12-18T08:35:55;-1.7;94.0
45383;DHT22;42455;51.660;5.824;2022-12-18T08:41:03;-1.6;94.0
45383;DHT22;42455;51.660;5.824;2022-12-18T08:46:08;-1.5;94.0
45383;DHT22;42455;51.660;5.824;2022-12-18T08:51:15;-1.3;94.0
45383;DHT22;42455;51.660;5.824;2022-12-18T08:56:20;-1.3;94.0
45383;DHT22;42455;51.660;5.824;2022-12-18T09:01:26;-1.1;94.0
45383;DHT22;42455;51.660;5.824;2022-12-18T09:06:32;-1.1;94.0
45383;DHT22;42455;51.660;5.824;2022-12-18T09:11:38;-1.0;94.0
45383;DHT22;42455;51.660;5.824;2022-12-18T09:16:45;-0.9;94.0
45383;DHT22;42455;51.660;5.824;2022-12-18T09:21:51;-0.7;94.0
45383;DHT22;42455;51.660;5.824;2022-12-18T09:26:57;-0.6;94.0
45383;DHT22;42455;51.660;5.824;2022-12-18T09:32:03;-0.6;93.5
45383;DHT22;42455;51.660;5.824;2022-12-18T09:37:09;-0.5;93.5
45383;DHT22;42455;51.660;5.824;2022-12-18T09:42:20;-0.3;93.5
45383;DHT22;42455;51.660;5.824;2022-12-18T09:47:39;-0.2;93.5
45383;DHT22;42455;51.660;5.824;2022-12-18T09:52:31;-0.2;93.5
45383;DHT22;42455;51.660;5.824;2022-12-18T09:57:53;0.0;93.5
45383;DHT22;42455;51.660;5.824;2022-12-18T10:03:17;0.1;93.5
45383;DHT22;42455;51.660;5.824;2022-12-18T10:08:27;0.2;93.5
45383;DHT22;42455;51.660;5.824;2022-12-18T10:13:35;0.3;93.5
45383;DHT22;42455;51.660;5.824;2022-12-18T10:19:16;0.4;93.5
45383;DHT22;42455;51.660;5.824;2022-12-18T10:23:47;0.5;93.5
45383;DHT22;42455;51.660;5.824;2022-12-18T10:28:13;0.6;93.5
45383;DHT22;42455;51.660;5.824;2022-12-18T10:33:20;0.7;93.5
45383;DHT22;42455;51.660;5.824;2022-12-18T10:38:26;0.8;93.5
45383;DHT22;42455;51.660;5.824;2022-12-18T10:43:33;0.9;93.0
45383;DHT22;42455;51.660;5.824;2022-12-18T10:48:48;1.1;93.0
45383;DHT22;42455;51.660;5.824;2022-12-18T10:53:51;1.1;93.0
45383;DHT22;42455;51.660;5.824;2022-12-18T10:59:02;1.2;93.0
45383;DHT22;42455;51.660;5.824;2022-12-18T11:04:08;1.3;92.5
45383;DHT22;42455;51.660;5.824;2022-12-18T11:09:05;1.3;92.5
45383;DHT22;42455;51.660;5.824;2022-12-18T11:14:18;1.5;92.5
45383;DHT22;42455;51.660;5.824;2022-12-18T11:19:23;1.5;92.5
45383;DHT22;42455;51.660;5.824;2022-12-18T11:24:26;1.6;92.5
45383;DHT22;42455;51.660;5.824;2022-12-18T11:29:28;1.7;92.5
45383;DHT22;42455;51.660;5.824;2022-12-18T11:34:33;1.7;92.0
45383;DHT22;42455;51.660;5.824;2022-12-18T11:39:41;1.8;92.0
45383;DHT22;42455;51.660;5.824;2022-12-18T11:44:59;1.8;92.0
45383;DHT22;42455;51.660;5.824;2022-12-18T11:49:51;1.9;92.0
45383;DHT22;42455;51.660;5.824;2022-12-18T11:55:09;2.0;92.0
45383;DHT22;42455;51.660;5.824;2022-12-18T12:00:18;2.1;92.0
45383;DHT22;42455;51.660;5.824;2022-12-18T12:06:43;2.2;91.5
45383;DHT22;42455;51.660;5.824;2022-12-18T12:11:59;2.2;91.5
45383;DHT22;42455;51.660;5.824;2022-12-18T12:17:49;2.3;91.5
45383;DHT22;42455;51.660;5.824;2022-12-18T12:23:17;2.4;91.5
45383;DHT22;42455;51.660;5.824;2022-12-18T12:28:49;2.4;91.0
45383;DHT22;42455;51.660;5.824;2022-12-18T12:34:26;2.4;91.0
45383;DHT22;42455;51.660;5.824;2022-12-18T12:39:11;2.4;91.0
45383;DHT22;42455;51.660;5.824;2022-12-18T12:40:54;2.5;91.0
45383;DHT22;42455;51.660;5.824;2022-12-18T12:45:59;2.5;90.5
45383;DHT22;42455;51.660;5.824;2022-12-18T12:51:10;2.6;90.5
45383;DHT22;42455;51.660;5.824;2022-12-18T12:56:13;2.6;90.5
45383;DHT22;42455;51.660;5.824;2022-12-18T13:01:26;2.6;90.5
45383;DHT22;42455;51.660;5.824;2022-12-18T13:06:37;2.6;90.5
45383;DHT22;42455;51.660;5.824;2022-12-18T13:11:37;2.6;90.5
45383;DHT22;42455;51.660;5.824;2022-12-18T13:16:35;2.7;90.0
45383;DHT22;42455;51.660;5.824;2022-12-18T13:21:42;2.7;90.0
45383;DHT22;42455;51.660;5.824;2022-12-18T13:26:48;2.7;90.0
45383;DHT22;42455;51.660;5.824;2022-12-18T13:32:01;2.7;90.0
45383;DHT22;42455;51.660;5.824;2022-12-18T13:37:45;2.7;90.0
45383;DHT22;42455;51.660;5.824;2022-12-18T13:42:40;2.7;90.0
45383;DHT22;42455;51.660;5.824;2022-12-18T13:47:36;2.7;90.0
45383;DHT22;42455;51.660;5.824;2022-12-18T13:52:26;2.7;90.0
45383;DHT22;42455;51.660;5.824;2022-12-18T13:57:37;2.8;89.5
45383;DHT22;42455;51.660;5.824;2022-12-18T14:02:31;2.7;89.5
45383;DHT22;42455;51.660;5.824;2022-12-18T14:07:37;2.8;89.5
45383;DHT22;42455;51.660;5.824;2022-12-18T14:12:48;2.8;89.5
45383;DHT22;42455;51.660;5.824;2022-12-18T14:17:50;2.8;89.5
45383;DHT22;42455;51.660;5.824;2022-12-18T14:22:56;2.8;89.0
45383;DHT22;42455;51.660;5.824;2022-12-18T14:28:08;2.8;89.0
45383;DHT22;42455;51.660;5.824;2022-12-18T14:33:23;2.8;89.0
45383;DHT22;42455;51.660;5.824;2022-12-18T14:38:18;2.8;89.0
45383;DHT22;42455;51.660;5.824;2022-12-18T14:43:21;2.8;89.0
45383;DHT22;42455;51.660;5.824;2022-12-18T14:48:35;2.8;89.0
45383;DHT22;42455;51.660;5.824;2022-12-18T14:53:35;2.8;88.5
45383;DHT22;42455;51.660;5.824;2022-12-18T14:58:43;2.7;88.5
45383;DHT22;42455;51.660;5.824;2022-12-18T15:03:46;2.7;88.5
45383;DHT22;42455;51.660;5.824;2022-12-18T15:08:52;2.7;88.5
45383;DHT22;42455;51.660;5.824;2022-12-18T15:13:58;2.7;88.5
45383;DHT22;42455;51.660;5.824;2022-12-18T15:19:07;2.7;88.5
45383;DHT22;42455;51.660;5.824;2022-12-18T15:24:18;2.7;88.0
45383;DHT22;42455;51.660;5.824;2022-12-18T15:29:23;2.7;88.0
45383;DHT22;42455;51.660;5.824;2022-12-18T15:34:23;2.6;88.0
45383;DHT22;42455;51.660;5.824;2022-12-18T15:39:29;2.6;88.0
45383;DHT22;42455;51.660;5.824;2022-12-18T15:44:35;2.6;88.0
45383;DHT22;42455;51.660;5.824;2022-12-18T15:49:42;2.6;88.0
45383;DHT22;42455;51.660;5.824;2022-12-18T15:54:48;2.6;88.0
45383;DHT22;42455;51.660;5.824;2022-12-18T15:59:55;2.6;88.0
45383;DHT22;42455;51.660;5.824;2022-12-18T16:05:00;2.5;88.0
45383;DHT22;42455;51.660;5.824;2022-12-18T16:10:06;2.6;88.0
45383;DHT22;42455;51.660;5.824;2022-12-18T16:15:14;2.5;88.0
45383;DHT22;42455;51.660;5.824;2022-12-18T16:20:20;2.5;88.0
45383;DHT22;42455;51.660;5.824;2022-12-18T16:25:27;2.5;88.0
45383;DHT22;42455;51.660;5.824;2022-12-18T16:30:31;2.5;87.5
45383;DHT22;42455;51.660;5.824;2022-12-18T16:35:37;2.5;87.5
45383;DHT22;42455;51.660;5.824;2022-12-18T16:40:44;2.5;87.5
45383;DHT22;42455;51.660;5.824;2022-12-18T16:45:50;2.5;87.5
45383;DHT22;42455;51.660;5.824;2022-12-18T16:51:04;2.5;87.5
45383;DHT22;42455;51.660;5.824;2022-12-18T16:56:02;2.5;87.5
45383;DHT22;42455;51.660;5.824;2022-12-18T17:01:09;2.5;87.5
45383;DHT22;42455;51.660;5.824;2022-12-18T17:06:15;2.5;87.5
45383;DHT22;42455;51.660;5.824;2022-12-18T17:11:22;2.5;87.5
45383;DHT22;42455;51.660;5.824;2022-12-18T17:16:27;2.5;87.5
45383;DHT22;42455;51.660;5.824;2022-12-18T17:21:33;2.5;87.5
45383;DHT22;42455;51.660;5.824;2022-12-18T17:26:40;2.5;87.5
45383;DHT22;42455;51.660;5.824;2022-12-18T17:31:46;2.5;87.5
45383;DHT22;42455;51.660;5.824;2022-12-18T17:36:52;2.5;87.5
45383;DHT22;42455;51.660;5.824;2022-12-18T17:41:58;2.5;87.5
45383;DHT22;42455;51.660;5.824;2022-12-18T17:47:04;2.5;87.5
45383;DHT22;42455;51.660;5.824;2022-12-18T17:52:10;2.5;87.5
45383;DHT22;42455;51.660;5.824;2022-12-18T17:57:16;2.5;87.5
45383;DHT22;42455;51.660;5.824;2022-12-18T18:02:22;2.5;87.5
45383;DHT22;42455;51.660;5.824;2022-12-18T18:07:28;2.5;87.5
45383;DHT22;42455;51.660;5.824;2022-12-18T18:12:35;2.5;87.5
45383;DHT22;42455;51.660;5.824;2022-12-18T18:17:41;2.5;87.5
45383;DHT22;42455;51.660;5.824;2022-12-18T18:22:46;2.6;87.5
45383;DHT22;42455;51.660;5.824;2022-12-18T18:27:52;2.6;87.5
45383;DHT22;42455;51.660;5.824;2022-12-18T18:32:58;2.6;87.5
45383;DHT22;42455;51.660;5.824;2022-12-18T18:38:04;2.6;87.5
45383;DHT22;42455;51.660;5.824;2022-12-18T18:43:11;2.6;87.5
45383;DHT22;42455;51.660;5.824;2022-12-18T18:48:17;2.6;87.5
45383;DHT22;42455;51.660;5.824;2022-12-18T18:53:23;2.6;87.5
45383;DHT22;42455;51.660;5.824;2022-12-18T18:58:30;2.6;87.5
45383;DHT22;42455;51.660;5.824;2022-12-18T19:03:36;2.6;87.5
45383;DHT22;42455;51.660;5.824;2022-12-18T19:08:42;2.7;87.5
45383;DHT22;42455;51.660;5.824;2022-12-18T19:13:48;2.7;87.5
45383;DHT22;42455;51.660;5.824;2022-12-18T19:18:55;2.7;87.5
45383;DHT22;42455;51.660;5.824;2022-12-18T19:24:01;2.7;87.5
45383;DHT22;42455;51.660;5.824;2022-12-18T19:29:10;2.7;87.5
45383;DHT22;42455;51.660;5.824;2022-12-18T19:34:13;2.7;87.5
45383;DHT22;42455;51.660;5.824;2022-12-18T19:39:19;2.8;87.5
45383;DHT22;42455;51.660;5.824;2022-12-18T19:44:25;2.8;88.0
45383;DHT22;42455;51.660;5.824;2022-12-18T19:49:31;2.8;88.0
45383;DHT22;42455;51.660;5.824;2022-12-18T19:54:38;2.8;88.0
45383;DHT22;42455;51.660;5.824;2022-12-18T19:59:44;2.8;88.0
45383;DHT22;42455;51.660;5.824;2022-12-18T20:04:50;2.9;88.0
45383;DHT22;42455;51.660;5.824;2022-12-18T20:09:56;2.9;88.0
45383;DHT22;42455;51.660;5.824;2022-12-18T20:15:02;2.9;88.0
45383;DHT22;42455;51.660;5.824;2022-12-18T20:20:09;2.9;88.0
45383;DHT22;42455;51.660;5.824;2022-12-18T20:25:15;2.9;88.0
45383;DHT22;42455;51.660;5.824;2022-12-18T20:30:21;2.9;88.5
45383;DHT22;42455;51.660;5.824;2022-12-18T20:35:27;2.9;88.5
45383;DHT22;42455;51.660;5.824;2022-12-18T20:40:34;2.9;88.5
45383;DHT22;42455;51.660;5.824;2022-12-18T20:45:40;2.9;88.5
45383;DHT22;42455;51.660;5.824;2022-12-18T20:50:55;2.9;89.0
45383;DHT22;42455;51.660;5.824;2022-12-18T20:55:52;2.9;89.0
45383;DHT22;42455;51.660;5.824;2022-12-18T21:01:02;2.9;89.0
45383;DHT22;42455;51.660;5.824;2022-12-18T21:06:06;2.9;89.5
45383;DHT22;42455;51.660;5.824;2022-12-18T21:11:12;2.9;89.5
45383;DHT22;42455;51.660;5.824;2022-12-18T21:16:17;2.9;89.5
45383;DHT22;42455;51.660;5.824;2022-12-18T21:21:23;2.9;90.0
45383;DHT22;42455;51.660;5.824;2022-12-18T21:26:29;2.9;90.0
45383;DHT22;42455;51.660;5.824;2022-12-18T21:31:36;2.9;90.0
45383;DHT22;42455;51.660;5.824;2022-12-18T21:36:42;2.9;90.0
45383;DHT22;42455;51.660;5.824;2022-12-18T21:41:49;2.9;90.0
45383;DHT22;42455;51.660;5.824;2022-12-18T21:46:54;2.9;90.0
45383;DHT22;42455;51.660;5.824;2022-12-18T21:52:00;2.9;90.5
45383;DHT22;42455;51.660;5.824;2022-12-18T21:57:06;2.9;90.5
45383;DHT22;42455;51.660;5.824;2022-12-18T22:02:15;2.9;90.5
45383;DHT22;42455;51.660;5.824;2022-12-18T22:07:19;2.9;90.5
45383;DHT22;42455;51.660;5.824;2022-12-18T22:12:25;2.9;90.5
45383;DHT22;42455;51.660;5.824;2022-12-18T22:17:31;2.9;91.0
45383;DHT22;42455;51.660;5.824;2022-12-18T22:22:37;2.9;91.0
45383;DHT22;42455;51.660;5.824;2022-12-18T22:27:44;2.9;91.0
45383;DHT22;42455;51.660;5.824;2022-12-18T22:32:50;2.9;91.0
45383;DHT22;42455;51.660;5.824;2022-12-18T22:37:56;2.9;91.0
45383;DHT22;42455;51.660;5.824;2022-12-18T22:43:02;2.9;91.5
45383;DHT22;42455;51.660;5.824;2022-12-18T22:48:09;2.9;91.5
45383;DHT22;42455;51.660;5.824;2022-12-18T22:53:15;2.9;91.5
45383;DHT22;42455;51.660;5.824;2022-12-18T22:58:21;2.9;91.5
45383;DHT22;42455;51.660;5.824;2022-12-18T23:03:27;2.9;91.5
45383;DHT22;42455;51.660;5.824;2022-12-18T23:08:34;2.9;91.5
45383;DHT22;42455;51.660;5.824;2022-12-18T23:13:40;2.9;91.5
45383;DHT22;42455;51.660;5.824;2022-12-18T23:18:46;2.9;92.0
45383;DHT22;42455;51.660;5.824;2022-12-18T23:23:52;2.9;92.0
45383;DHT22;42455;51.660;5.824;2022-12-18T23:29:00;3.0;92.0
45383;DHT22;42455;51.660;5.824;2022-12-18T23:34:06;3.0;92.0
45383;DHT22;42455;51.660;5.824;2022-12-18T23:39:11;3.0;92.0
45383;DHT22;42455;51.660;5.824;2022-12-18T23:44:17;3.0;92.0
45383;DHT22;42455;51.660;5.824;2022-12-18T23:49:23;3.1;92.5
45383;DHT22;42455;51.660;5.824;2022-12-18T23:54:28;3.1;92.5
45383;DHT22;42455;51.660;5.824;2022-12-18T23:59:35;3.1;92.5
